sensor_id;sensor_type;location;lat;lon;timestamp;P1;durP1;ratioP1;P2;durP2;ratioP2
50605;SDS011;36557;53.572;10.170;2023-05-16T00:00:41;4.97;;;2.03;;
50605;SDS011;36557;53.572;10.170;2023-05-16T00:03:07;4.53;;;2.35;;
50605;SDS011;36557;53.572;10.170;2023-05-16T00:05:35;4.35;;;2.30;;
50605;SDS011;36557;53.572;10.170;2023-05-16T00:08:01;3.92;;;1.83;;
50605;SDS011;36557;53.572;10.170;2023-05-16T00:10:27;5.00;;;1.63;;
50605;SDS011;36557;53.572;10.170;2023-05-16T00:12:54;4.82;;;1.95;;
50605;SDS011;36557;53.572;10.170;2023-05-16T00:15:20;4.78;;;2.03;;
50605;SDS011;36557;53.572;10.170;2023-05-16T00:17:47;3.65;;;2.05;;
50605;SDS011;36557;53.572;10.170;2023-05-16T00:20:13;4.07;;;1.80;;
50605;SDS011;36557;53.572;10.170;2023-05-16T00:22:41;3.00;;;1.60;;
50605;SDS011;36557;53.572;10.170;2023-05-16T00:25:07;3.92;;;1.80;;
50605;SDS011;36557;53.572;10.170;2023-05-16T00:27:34;3.53;;;2.10;;
50605;SDS011;36557;53.572;10.170;2023-05-16T00:30:03;5.45;;;2.15;;
50605;SDS011;36557;53.572;10.170;2023-05-16T00:32:30;4.30;;;1.90;;
50605;SDS011;36557;53.572;10.170;2023-05-16T00:34:56;3.10;;;1.95;;
50605;SDS011;36557;53.572;10.170;2023-05-16T00:37:22;4.50;;;2.35;;
50605;SDS011;36557;53.572;10.170;2023-05-16T00:39:48;3.28;;;2.25;;
50605;SDS011;36557;53.572;10.170;2023-05-16T00:42:14;3.63;;;2.15;;
50605;SDS011;36557;53.572;10.170;2023-05-16T00:44:40;3.53;;;1.95;;
50605;SDS011;36557;53.572;10.170;2023-05-16T00:47:06;3.47;;;1.73;;
50605;SDS011;36557;53.572;10.170;2023-05-16T00:49:32;3.60;;;2.10;;
50605;SDS011;36557;53.572;10.170;2023-05-16T00:51:58;4.28;;;1.90;;
50605;SDS011;36557;53.572;10.170;2023-05-16T00:54:25;3.55;;;1.95;;
50605;SDS011;36557;53.572;10.170;2023-05-16T00:56:53;4.25;;;2.22;;
50605;SDS011;36557;53.572;10.170;2023-05-16T00:59:20;4.85;;;1.80;;
50605;SDS011;36557;53.572;10.170;2023-05-16T01:01:46;3.72;;;1.95;;
50605;SDS011;36557;53.572;10.170;2023-05-16T01:04:13;3.00;;;1.73;;
50605;SDS011;36557;53.572;10.170;2023-05-16T01:06:39;4.75;;;1.77;;
50605;SDS011;36557;53.572;10.170;2023-05-16T01:09:05;2.50;;;1.80;;
50605;SDS011;36557;53.572;10.170;2023-05-16T01:14:33;5.00;;;1.98;;
50605;SDS011;36557;53.572;10.170;2023-05-16T01:17:07;3.33;;;1.90;;
50605;SDS011;36557;53.572;10.170;2023-05-16T01:19:50;3.47;;;1.58;;
50605;SDS011;36557;53.572;10.170;2023-05-16T01:22:28;7.25;;;3.42;;
50605;SDS011;36557;53.572;10.170;2023-05-16T01:25:10;2.92;;;1.90;;
50605;SDS011;36557;53.572;10.170;2023-05-16T01:27:37;3.50;;;2.15;;
50605;SDS011;36557;53.572;10.170;2023-05-16T01:30:12;4.55;;;2.05;;
50605;SDS011;36557;53.572;10.170;2023-05-16T01:32:38;2.72;;;1.80;;
50605;SDS011;36557;53.572;10.170;2023-05-16T01:35:04;2.65;;;1.80;;
50605;SDS011;36557;53.572;10.170;2023-05-16T01:37:34;3.42;;;1.98;;
50605;SDS011;36557;53.572;10.170;2023-05-16T01:42:31;3.83;;;1.67;;
50605;SDS011;36557;53.572;10.170;2023-05-16T01:45:11;3.78;;;1.90;;
50605;SDS011;36557;53.572;10.170;2023-05-16T01:47:39;3.92;;;1.67;;
50605;SDS011;36557;53.572;10.170;2023-05-16T01:50:11;3.67;;;2.10;;
50605;SDS011;36557;53.572;10.170;2023-05-16T01:55:40;4.00;;;2.35;;
50605;SDS011;36557;53.572;10.170;2023-05-16T01:58:08;3.42;;;2.10;;
50605;SDS011;36557;53.572;10.170;2023-05-16T02:00:35;4.63;;;2.00;;
50605;SDS011;36557;53.572;10.170;2023-05-16T02:03:01;4.63;;;2.45;;
50605;SDS011;36557;53.572;10.170;2023-05-16T02:05:27;6.10;;;2.22;;
50605;SDS011;36557;53.572;10.170;2023-05-16T02:07:53;4.07;;;1.60;;
50605;SDS011;36557;53.572;10.170;2023-05-16T02:10:19;6.78;;;1.77;;
50605;SDS011;36557;53.572;10.170;2023-05-16T02:12:45;4.95;;;1.90;;
50605;SDS011;36557;53.572;10.170;2023-05-16T02:15:11;5.15;;;1.98;;
50605;SDS011;36557;53.572;10.170;2023-05-16T02:17:38;5.55;;;1.83;;
50605;SDS011;36557;53.572;10.170;2023-05-16T02:20:05;7.18;;;2.13;;
50605;SDS011;36557;53.572;10.170;2023-05-16T02:22:34;4.68;;;1.48;;
50605;SDS011;36557;53.572;10.170;2023-05-16T02:25:01;4.65;;;1.25;;
50605;SDS011;36557;53.572;10.170;2023-05-16T02:27:27;8.60;;;1.40;;
50605;SDS011;36557;53.572;10.170;2023-05-16T02:29:53;9.32;;;1.75;;
50605;SDS011;36557;53.572;10.170;2023-05-16T02:32:19;5.15;;;1.30;;
50605;SDS011;36557;53.572;10.170;2023-05-16T02:34:46;7.03;;;1.33;;
50605;SDS011;36557;53.572;10.170;2023-05-16T02:37:12;7.03;;;1.42;;
50605;SDS011;36557;53.572;10.170;2023-05-16T02:39:38;5.40;;;1.40;;
50605;SDS011;36557;53.572;10.170;2023-05-16T02:42:05;7.07;;;1.33;;
50605;SDS011;36557;53.572;10.170;2023-05-16T02:44:31;6.43;;;1.40;;
50605;SDS011;36557;53.572;10.170;2023-05-16T02:46:57;6.32;;;1.30;;
50605;SDS011;36557;53.572;10.170;2023-05-16T02:49:23;6.38;;;1.80;;
50605;SDS011;36557;53.572;10.170;2023-05-16T02:51:49;7.25;;;1.45;;
50605;SDS011;36557;53.572;10.170;2023-05-16T02:54:16;8.57;;;1.83;;
50605;SDS011;36557;53.572;10.170;2023-05-16T02:56:42;5.43;;;1.48;;
50605;SDS011;36557;53.572;10.170;2023-05-16T02:59:09;13.77;;;1.90;;
50605;SDS011;36557;53.572;10.170;2023-05-16T03:01:35;7.95;;;1.63;;
50605;SDS011;36557;53.572;10.170;2023-05-16T03:04:01;9.63;;;1.52;;
50605;SDS011;36557;53.572;10.170;2023-05-16T03:06:27;7.65;;;2.03;;
50605;SDS011;36557;53.572;10.170;2023-05-16T03:08:54;10.40;;;1.73;;
50605;SDS011;36557;53.572;10.170;2023-05-16T03:11:20;6.85;;;1.52;;
50605;SDS011;36557;53.572;10.170;2023-05-16T03:13:47;8.30;;;1.67;;
50605;SDS011;36557;53.572;10.170;2023-05-16T03:16:13;7.20;;;1.50;;
50605;SDS011;36557;53.572;10.170;2023-05-16T03:18:40;6.72;;;1.83;;
50605;SDS011;36557;53.572;10.170;2023-05-16T03:21:06;8.90;;;1.70;;
50605;SDS011;36557;53.572;10.170;2023-05-16T03:23:32;7.93;;;1.40;;
50605;SDS011;36557;53.572;10.170;2023-05-16T03:25:58;5.50;;;1.45;;
50605;SDS011;36557;53.572;10.170;2023-05-16T03:28:25;8.30;;;1.60;;
50605;SDS011;36557;53.572;10.170;2023-05-16T03:30:51;7.47;;;1.63;;
50605;SDS011;36557;53.572;10.170;2023-05-16T03:33:17;12.65;;;2.17;;
50605;SDS011;36557;53.572;10.170;2023-05-16T03:35:43;11.68;;;2.05;;
50605;SDS011;36557;53.572;10.170;2023-05-16T03:38:10;10.90;;;1.88;;
50605;SDS011;36557;53.572;10.170;2023-05-16T03:40:36;12.82;;;1.80;;
50605;SDS011;36557;53.572;10.170;2023-05-16T03:43:02;8.02;;;2.03;;
50605;SDS011;36557;53.572;10.170;2023-05-16T03:45:28;13.60;;;2.25;;
50605;SDS011;36557;53.572;10.170;2023-05-16T03:47:55;10.63;;;2.30;;
50605;SDS011;36557;53.572;10.170;2023-05-16T03:50:21;13.27;;;2.58;;
50605;SDS011;36557;53.572;10.170;2023-05-16T03:52:47;12.00;;;1.92;;
50605;SDS011;36557;53.572;10.170;2023-05-16T03:55:13;11.10;;;1.85;;
50605;SDS011;36557;53.572;10.170;2023-05-16T03:57:40;11.02;;;2.00;;
50605;SDS011;36557;53.572;10.170;2023-05-16T04:00:07;10.40;;;1.83;;
50605;SDS011;36557;53.572;10.170;2023-05-16T04:02:34;9.70;;;1.98;;
50605;SDS011;36557;53.572;10.170;2023-05-16T04:05:01;15.57;;;1.90;;
50605;SDS011;36557;53.572;10.170;2023-05-16T04:07:27;12.07;;;1.65;;
50605;SDS011;36557;53.572;10.170;2023-05-16T04:09:53;9.32;;;2.22;;
50605;SDS011;36557;53.572;10.170;2023-05-16T04:12:20;12.95;;;2.13;;
50605;SDS011;36557;53.572;10.170;2023-05-16T04:14:47;11.68;;;2.03;;
50605;SDS011;36557;53.572;10.170;2023-05-16T04:17:13;11.68;;;1.75;;
50605;SDS011;36557;53.572;10.170;2023-05-16T04:19:39;6.80;;;1.38;;
50605;SDS011;36557;53.572;10.170;2023-05-16T04:22:05;10.95;;;1.90;;
50605;SDS011;36557;53.572;10.170;2023-05-16T04:24:31;11.70;;;1.70;;
50605;SDS011;36557;53.572;10.170;2023-05-16T04:26:57;10.35;;;1.92;;
50605;SDS011;36557;53.572;10.170;2023-05-16T04:29:23;11.85;;;2.08;;
50605;SDS011;36557;53.572;10.170;2023-05-16T04:31:50;10.90;;;2.10;;
50605;SDS011;36557;53.572;10.170;2023-05-16T04:34:16;12.70;;;1.90;;
50605;SDS011;36557;53.572;10.170;2023-05-16T04:36:42;8.38;;;1.83;;
50605;SDS011;36557;53.572;10.170;2023-05-16T04:39:08;12.05;;;2.15;;
50605;SDS011;36557;53.572;10.170;2023-05-16T04:41:34;9.52;;;1.40;;
50605;SDS011;36557;53.572;10.170;2023-05-16T04:44:03;6.65;;;1.38;;
50605;SDS011;36557;53.572;10.170;2023-05-16T04:46:29;8.13;;;1.30;;
50605;SDS011;36557;53.572;10.170;2023-05-16T04:48:56;9.20;;;1.60;;
50605;SDS011;36557;53.572;10.170;2023-05-16T04:51:22;12.48;;;1.83;;
50605;SDS011;36557;53.572;10.170;2023-05-16T04:53:48;10.32;;;1.55;;
50605;SDS011;36557;53.572;10.170;2023-05-16T04:56:14;10.73;;;1.92;;
50605;SDS011;36557;53.572;10.170;2023-05-16T04:58:40;10.70;;;4.25;;
50605;SDS011;36557;53.572;10.170;2023-05-16T05:01:06;14.68;;;2.80;;
50605;SDS011;36557;53.572;10.170;2023-05-16T05:03:32;6.40;;;1.67;;
50605;SDS011;36557;53.572;10.170;2023-05-16T05:05:59;11.85;;;2.58;;
50605;SDS011;36557;53.572;10.170;2023-05-16T05:08:25;10.02;;;2.67;;
50605;SDS011;36557;53.572;10.170;2023-05-16T05:10:51;8.05;;;1.77;;
50605;SDS011;36557;53.572;10.170;2023-05-16T05:13:17;11.40;;;1.90;;
50605;SDS011;36557;53.572;10.170;2023-05-16T05:15:43;11.65;;;1.50;;
50605;SDS011;36557;53.572;10.170;2023-05-16T05:18:09;8.88;;;1.55;;
50605;SDS011;36557;53.572;10.170;2023-05-16T05:20:35;9.57;;;1.88;;
50605;SDS011;36557;53.572;10.170;2023-05-16T05:23:02;11.27;;;2.00;;
50605;SDS011;36557;53.572;10.170;2023-05-16T05:25:28;11.77;;;1.80;;
50605;SDS011;36557;53.572;10.170;2023-05-16T05:27:54;7.25;;;1.52;;
50605;SDS011;36557;53.572;10.170;2023-05-16T05:30:20;9.32;;;1.95;;
50605;SDS011;36557;53.572;10.170;2023-05-16T05:32:46;11.75;;;1.63;;
50605;SDS011;36557;53.572;10.170;2023-05-16T05:35:12;6.30;;;1.30;;
50605;SDS011;36557;53.572;10.170;2023-05-16T05:37:39;13.48;;;2.60;;
50605;SDS011;36557;53.572;10.170;2023-05-16T05:40:05;13.18;;;1.90;;
50605;SDS011;36557;53.572;10.170;2023-05-16T05:42:32;6.88;;;1.40;;
50605;SDS011;36557;53.572;10.170;2023-05-16T05:44:59;13.02;;;1.88;;
50605;SDS011;36557;53.572;10.170;2023-05-16T05:47:25;9.20;;;1.73;;
50605;SDS011;36557;53.572;10.170;2023-05-16T05:49:51;10.02;;;1.45;;
50605;SDS011;36557;53.572;10.170;2023-05-16T05:52:17;8.68;;;1.45;;
50605;SDS011;36557;53.572;10.170;2023-05-16T05:54:43;13.18;;;2.20;;
50605;SDS011;36557;53.572;10.170;2023-05-16T05:57:09;9.93;;;1.60;;
50605;SDS011;36557;53.572;10.170;2023-05-16T05:59:35;7.45;;;1.75;;
50605;SDS011;36557;53.572;10.170;2023-05-16T06:02:01;8.13;;;1.50;;
50605;SDS011;36557;53.572;10.170;2023-05-16T06:04:27;8.25;;;1.48;;
50605;SDS011;36557;53.572;10.170;2023-05-16T06:06:53;7.28;;;1.40;;
50605;SDS011;36557;53.572;10.170;2023-05-16T06:09:20;6.65;;;1.10;;
50605;SDS011;36557;53.572;10.170;2023-05-16T06:11:46;10.23;;;1.83;;
50605;SDS011;36557;53.572;10.170;2023-05-16T06:14:13;9.85;;;1.58;;
50605;SDS011;36557;53.572;10.170;2023-05-16T06:16:42;10.00;;;1.88;;
50605;SDS011;36557;53.572;10.170;2023-05-16T06:19:08;9.95;;;1.70;;
50605;SDS011;36557;53.572;10.170;2023-05-16T06:21:36;8.27;;;1.45;;
50605;SDS011;36557;53.572;10.170;2023-05-16T06:24:02;10.35;;;1.52;;
50605;SDS011;36557;53.572;10.170;2023-05-16T06:26:28;7.40;;;1.55;;
50605;SDS011;36557;53.572;10.170;2023-05-16T06:28:55;6.70;;;1.33;;
50605;SDS011;36557;53.572;10.170;2023-05-16T06:31:21;4.40;;;1.00;;
50605;SDS011;36557;53.572;10.170;2023-05-16T06:33:47;6.88;;;1.30;;
50605;SDS011;36557;53.572;10.170;2023-05-16T06:36:13;7.47;;;1.20;;
50605;SDS011;36557;53.572;10.170;2023-05-16T06:38:39;8.88;;;1.23;;
50605;SDS011;36557;53.572;10.170;2023-05-16T06:41:05;11.20;;;1.33;;
50605;SDS011;36557;53.572;10.170;2023-05-16T06:43:31;9.18;;;1.48;;
50605;SDS011;36557;53.572;10.170;2023-05-16T06:45:57;7.80;;;1.33;;
50605;SDS011;36557;53.572;10.170;2023-05-16T06:48:23;6.25;;;1.40;;
50605;SDS011;36557;53.572;10.170;2023-05-16T06:50:49;10.55;;;1.42;;
50605;SDS011;36557;53.572;10.170;2023-05-16T06:53:18;9.50;;;1.35;;
50605;SDS011;36557;53.572;10.170;2023-05-16T06:55:45;11.68;;;2.05;;
50605;SDS011;36557;53.572;10.170;2023-05-16T06:58:11;8.10;;;1.40;;
50605;SDS011;36557;53.572;10.170;2023-05-16T07:00:37;6.45;;;1.30;;
50605;SDS011;36557;53.572;10.170;2023-05-16T07:03:03;7.45;;;1.30;;
50605;SDS011;36557;53.572;10.170;2023-05-16T07:05:29;5.78;;;1.20;;
50605;SDS011;36557;53.572;10.170;2023-05-16T07:07:56;9.77;;;1.80;;
50605;SDS011;36557;53.572;10.170;2023-05-16T07:10:22;7.90;;;1.60;;
50605;SDS011;36557;53.572;10.170;2023-05-16T07:12:48;8.45;;;1.27;;
50605;SDS011;36557;53.572;10.170;2023-05-16T07:15:14;8.77;;;1.80;;
50605;SDS011;36557;53.572;10.170;2023-05-16T07:17:40;5.45;;;1.17;;
50605;SDS011;36557;53.572;10.170;2023-05-16T07:20:06;4.78;;;1.20;;
50605;SDS011;36557;53.572;10.170;2023-05-16T07:22:37;8.90;;;1.27;;
50605;SDS011;36557;53.572;10.170;2023-05-16T07:25:03;8.05;;;1.35;;
50605;SDS011;36557;53.572;10.170;2023-05-16T07:27:29;7.88;;;1.52;;
50605;SDS011;36557;53.572;10.170;2023-05-16T07:29:56;6.05;;;1.00;;
50605;SDS011;36557;53.572;10.170;2023-05-16T07:32:22;4.53;;;1.05;;
50605;SDS011;36557;53.572;10.170;2023-05-16T07:34:48;6.03;;;1.45;;
50605;SDS011;36557;53.572;10.170;2023-05-16T07:37:14;8.63;;;1.25;;
50605;SDS011;36557;53.572;10.170;2023-05-16T07:39:40;10.05;;;1.35;;
50605;SDS011;36557;53.572;10.170;2023-05-16T07:42:07;7.30;;;1.38;;
50605;SDS011;36557;53.572;10.170;2023-05-16T07:44:33;7.30;;;1.15;;
50605;SDS011;36557;53.572;10.170;2023-05-16T07:47:00;8.88;;;1.40;;
50605;SDS011;36557;53.572;10.170;2023-05-16T07:49:26;5.28;;;1.17;;
50605;SDS011;36557;53.572;10.170;2023-05-16T07:51:52;5.20;;;1.20;;
50605;SDS011;36557;53.572;10.170;2023-05-16T07:54:18;7.32;;;1.00;;
50605;SDS011;36557;53.572;10.170;2023-05-16T07:56:44;6.57;;;1.40;;
50605;SDS011;36557;53.572;10.170;2023-05-16T07:59:10;8.57;;;1.85;;
50605;SDS011;36557;53.572;10.170;2023-05-16T08:01:36;3.67;;;1.10;;
50605;SDS011;36557;53.572;10.170;2023-05-16T08:04:02;7.75;;;1.10;;
50605;SDS011;36557;53.572;10.170;2023-05-16T08:06:28;9.02;;;1.58;;
50605;SDS011;36557;53.572;10.170;2023-05-16T08:08:55;6.80;;;1.35;;
50605;SDS011;36557;53.572;10.170;2023-05-16T08:11:21;5.45;;;1.25;;
50605;SDS011;36557;53.572;10.170;2023-05-16T08:13:48;4.65;;;1.00;;
50605;SDS011;36557;53.572;10.170;2023-05-16T08:16:14;6.50;;;1.30;;
50605;SDS011;36557;53.572;10.170;2023-05-16T08:18:40;5.90;;;1.10;;
50605;SDS011;36557;53.572;10.170;2023-05-16T08:21:06;4.05;;;0.98;;
50605;SDS011;36557;53.572;10.170;2023-05-16T08:23:33;8.23;;;1.20;;
50605;SDS011;36557;53.572;10.170;2023-05-16T08:26:00;4.20;;;1.40;;
50605;SDS011;36557;53.572;10.170;2023-05-16T08:28:27;4.70;;;1.00;;
50605;SDS011;36557;53.572;10.170;2023-05-16T08:30:53;7.50;;;1.52;;
50605;SDS011;36557;53.572;10.170;2023-05-16T08:33:19;6.55;;;1.30;;
50605;SDS011;36557;53.572;10.170;2023-05-16T08:35:45;5.88;;;1.48;;
50605;SDS011;36557;53.572;10.170;2023-05-16T08:38:13;5.53;;;0.88;;
50605;SDS011;36557;53.572;10.170;2023-05-16T08:40:39;6.43;;;1.05;;
50605;SDS011;36557;53.572;10.170;2023-05-16T08:43:06;6.55;;;1.27;;
50605;SDS011;36557;53.572;10.170;2023-05-16T08:45:32;6.63;;;1.50;;
50605;SDS011;36557;53.572;10.170;2023-05-16T08:47:59;5.57;;;1.20;;
50605;SDS011;36557;53.572;10.170;2023-05-16T08:50:29;6.65;;;1.38;;
50605;SDS011;36557;53.572;10.170;2023-05-16T08:52:56;5.65;;;1.13;;
50605;SDS011;36557;53.572;10.170;2023-05-16T08:55:22;6.78;;;1.20;;
50605;SDS011;36557;53.572;10.170;2023-05-16T08:57:49;5.78;;;1.02;;
50605;SDS011;36557;53.572;10.170;2023-05-16T09:00:16;7.03;;;1.40;;
50605;SDS011;36557;53.572;10.170;2023-05-16T09:02:43;6.35;;;1.50;;
50605;SDS011;36557;53.572;10.170;2023-05-16T09:05:12;5.32;;;0.88;;
50605;SDS011;36557;53.572;10.170;2023-05-16T09:07:39;4.00;;;0.93;;
50605;SDS011;36557;53.572;10.170;2023-05-16T09:10:05;5.40;;;1.00;;
50605;SDS011;36557;53.572;10.170;2023-05-16T09:12:32;6.65;;;1.10;;
50605;SDS011;36557;53.572;10.170;2023-05-16T09:15:02;4.25;;;1.00;;
50605;SDS011;36557;53.572;10.170;2023-05-16T09:17:38;7.80;;;0.90;;
50605;SDS011;36557;53.572;10.170;2023-05-16T09:20:09;3.15;;;0.90;;
50605;SDS011;36557;53.572;10.170;2023-05-16T09:22:39;3.33;;;1.00;;
50605;SDS011;36557;53.572;10.170;2023-05-16T09:25:06;7.50;;;1.27;;
50605;SDS011;36557;53.572;10.170;2023-05-16T09:27:32;8.68;;;1.17;;
50605;SDS011;36557;53.572;10.170;2023-05-16T09:29:58;21.15;;;2.90;;
50605;SDS011;36557;53.572;10.170;2023-05-16T09:32:24;2.95;;;0.90;;
50605;SDS011;36557;53.572;10.170;2023-05-16T09:34:51;4.90;;;1.02;;
50605;SDS011;36557;53.572;10.170;2023-05-16T09:37:17;8.13;;;1.63;;
50605;SDS011;36557;53.572;10.170;2023-05-16T09:39:47;8.60;;;1.35;;
50605;SDS011;36557;53.572;10.170;2023-05-16T09:42:15;7.43;;;1.38;;
50605;SDS011;36557;53.572;10.170;2023-05-16T09:44:45;8.52;;;1.58;;
50605;SDS011;36557;53.572;10.170;2023-05-16T09:47:19;4.47;;;1.10;;
50605;SDS011;36557;53.572;10.170;2023-05-16T09:49:46;3.47;;;1.00;;
50605;SDS011;36557;53.572;10.170;2023-05-16T09:52:16;4.25;;;0.90;;
50605;SDS011;36557;53.572;10.170;2023-05-16T09:54:42;5.45;;;1.10;;
50605;SDS011;36557;53.572;10.170;2023-05-16T09:57:10;6.60;;;0.90;;
50605;SDS011;36557;53.572;10.170;2023-05-16T09:59:38;4.18;;;1.02;;
50605;SDS011;36557;53.572;10.170;2023-05-16T10:02:07;4.00;;;1.00;;
50605;SDS011;36557;53.572;10.170;2023-05-16T10:04:33;5.72;;;0.90;;
50605;SDS011;36557;53.572;10.170;2023-05-16T10:07:02;5.35;;;1.35;;
50605;SDS011;36557;53.572;10.170;2023-05-16T10:09:32;6.90;;;1.00;;
50605;SDS011;36557;53.572;10.170;2023-05-16T10:12:01;4.43;;;1.05;;
50605;SDS011;36557;53.572;10.170;2023-05-16T10:14:34;5.63;;;1.20;;
50605;SDS011;36557;53.572;10.170;2023-05-16T10:17:05;7.30;;;1.20;;
50605;SDS011;36557;53.572;10.170;2023-05-16T10:19:33;4.18;;;1.10;;
50605;SDS011;36557;53.572;10.170;2023-05-16T10:22:03;4.38;;;1.00;;
50605;SDS011;36557;53.572;10.170;2023-05-16T10:24:36;4.93;;;1.17;;
50605;SDS011;36557;53.572;10.170;2023-05-16T10:27:10;7.07;;;1.50;;
50605;SDS011;36557;53.572;10.170;2023-05-16T10:29:37;5.15;;;0.95;;
50605;SDS011;36557;53.572;10.170;2023-05-16T10:32:04;8.40;;;1.30;;
50605;SDS011;36557;53.572;10.170;2023-05-16T10:34:31;4.50;;;0.80;;
50605;SDS011;36557;53.572;10.170;2023-05-16T10:36:57;5.82;;;1.20;;
50605;SDS011;36557;53.572;10.170;2023-05-16T10:39:23;8.00;;;1.83;;
50605;SDS011;36557;53.572;10.170;2023-05-16T10:41:49;6.57;;;1.45;;
50605;SDS011;36557;53.572;10.170;2023-05-16T10:44:16;4.85;;;1.23;;
50605;SDS011;36557;53.572;10.170;2023-05-16T10:46:41;4.90;;;1.23;;
50605;SDS011;36557;53.572;10.170;2023-05-16T10:52:02;7.43;;;1.70;;
50605;SDS011;36557;53.572;10.170;2023-05-16T10:54:34;5.35;;;1.40;;
50605;SDS011;36557;53.572;10.170;2023-05-16T10:57:04;8.93;;;1.58;;
50605;SDS011;36557;53.572;10.170;2023-05-16T10:59:38;10.32;;;1.60;;
50605;SDS011;36557;53.572;10.170;2023-05-16T11:02:19;5.85;;;2.00;;
50605;SDS011;36557;53.572;10.170;2023-05-16T11:04:47;5.22;;;1.40;;
50605;SDS011;36557;53.572;10.170;2023-05-16T11:07:14;4.65;;;1.20;;
50605;SDS011;36557;53.572;10.170;2023-05-16T11:09:45;4.80;;;0.88;;
50605;SDS011;36557;53.572;10.170;2023-05-16T11:12:19;8.68;;;0.95;;
50605;SDS011;36557;53.572;10.170;2023-05-16T11:14:45;6.15;;;1.02;;
50605;SDS011;36557;53.572;10.170;2023-05-16T11:17:22;4.80;;;1.00;;
50605;SDS011;36557;53.572;10.170;2023-05-16T11:19:56;8.95;;;1.50;;
50605;SDS011;36557;53.572;10.170;2023-05-16T11:22:28;6.95;;;1.20;;
50605;SDS011;36557;53.572;10.170;2023-05-16T11:29:50;9.38;;;1.42;;
50605;SDS011;36557;53.572;10.170;2023-05-16T11:32:20;4.47;;;0.90;;
50605;SDS011;36557;53.572;10.170;2023-05-16T11:34:47;5.70;;;0.85;;
50605;SDS011;36557;53.572;10.170;2023-05-16T11:37:15;3.30;;;0.85;;
50605;SDS011;36557;53.572;10.170;2023-05-16T11:39:41;1.70;;;0.90;;
50605;SDS011;36557;53.572;10.170;2023-05-16T11:42:07;4.00;;;1.00;;
50605;SDS011;36557;53.572;10.170;2023-05-16T11:44:33;3.22;;;0.75;;
50605;SDS011;36557;53.572;10.170;2023-05-16T11:46:59;4.15;;;1.00;;
50605;SDS011;36557;53.572;10.170;2023-05-16T11:49:28;11.82;;;1.20;;
50605;SDS011;36557;53.572;10.170;2023-05-16T11:51:54;6.10;;;0.90;;
50605;SDS011;36557;53.572;10.170;2023-05-16T11:54:21;3.53;;;1.10;;
50605;SDS011;36557;53.572;10.170;2023-05-16T11:56:48;3.70;;;0.90;;
50605;SDS011;36557;53.572;10.170;2023-05-16T11:59:16;5.88;;;1.10;;
50605;SDS011;36557;53.572;10.170;2023-05-16T12:01:42;4.75;;;0.90;;
50605;SDS011;36557;53.572;10.170;2023-05-16T12:04:09;4.57;;;1.25;;
50605;SDS011;36557;53.572;10.170;2023-05-16T12:06:36;4.10;;;0.80;;
50605;SDS011;36557;53.572;10.170;2023-05-16T12:09:10;5.00;;;1.00;;
50605;SDS011;36557;53.572;10.170;2023-05-16T12:11:38;3.33;;;0.70;;
50605;SDS011;36557;53.572;10.170;2023-05-16T12:14:11;3.05;;;0.90;;
50605;SDS011;36557;53.572;10.170;2023-05-16T12:16:37;3.42;;;0.77;;
50605;SDS011;36557;53.572;10.170;2023-05-16T12:19:06;3.45;;;0.93;;
50605;SDS011;36557;53.572;10.170;2023-05-16T12:21:33;3.83;;;0.90;;
50605;SDS011;36557;53.572;10.170;2023-05-16T12:23:59;3.80;;;1.10;;
50605;SDS011;36557;53.572;10.170;2023-05-16T12:26:26;6.55;;;1.10;;
50605;SDS011;36557;53.572;10.170;2023-05-16T12:28:59;4.53;;;1.05;;
50605;SDS011;36557;53.572;10.170;2023-05-16T12:31:27;4.30;;;1.05;;
50605;SDS011;36557;53.572;10.170;2023-05-16T12:33:57;3.35;;;0.80;;
50605;SDS011;36557;53.572;10.170;2023-05-16T12:36:23;3.83;;;0.80;;
50605;SDS011;36557;53.572;10.170;2023-05-16T12:38:51;7.50;;;0.80;;
50605;SDS011;36557;53.572;10.170;2023-05-16T12:41:18;2.88;;;0.90;;
50605;SDS011;36557;53.572;10.170;2023-05-16T12:43:45;7.90;;;0.95;;
50605;SDS011;36557;53.572;10.170;2023-05-16T12:46:11;2.03;;;0.75;;
50605;SDS011;36557;53.572;10.170;2023-05-16T12:48:37;5.07;;;0.85;;
50605;SDS011;36557;53.572;10.170;2023-05-16T12:51:10;2.83;;;0.80;;
50605;SDS011;36557;53.572;10.170;2023-05-16T12:53:43;3.45;;;0.80;;
50605;SDS011;36557;53.572;10.170;2023-05-16T12:56:11;6.18;;;1.27;;
50605;SDS011;36557;53.572;10.170;2023-05-16T12:58:37;6.55;;;0.90;;
50605;SDS011;36557;53.572;10.170;2023-05-16T13:01:03;6.55;;;1.40;;
50605;SDS011;36557;53.572;10.170;2023-05-16T13:03:30;6.10;;;1.17;;
50605;SDS011;36557;53.572;10.170;2023-05-16T13:05:57;6.40;;;1.20;;
50605;SDS011;36557;53.572;10.170;2023-05-16T13:08:24;6.07;;;1.27;;
50605;SDS011;36557;53.572;10.170;2023-05-16T13:10:50;9.45;;;1.80;;
50605;SDS011;36557;53.572;10.170;2023-05-16T13:13:16;8.00;;;1.55;;
50605;SDS011;36557;53.572;10.170;2023-05-16T13:15:43;3.08;;;1.08;;
50605;SDS011;36557;53.572;10.170;2023-05-16T13:18:09;6.03;;;1.33;;
50605;SDS011;36557;53.572;10.170;2023-05-16T13:20:35;7.70;;;1.65;;
50605;SDS011;36557;53.572;10.170;2023-05-16T13:23:01;5.82;;;1.20;;
50605;SDS011;36557;53.572;10.170;2023-05-16T13:25:26;4.72;;;1.10;;
50605;SDS011;36557;53.572;10.170;2023-05-16T13:27:52;2.25;;;0.80;;
50605;SDS011;36557;53.572;10.170;2023-05-16T13:30:18;5.57;;;1.05;;
50605;SDS011;36557;53.572;10.170;2023-05-16T13:32:43;5.53;;;1.27;;
50605;SDS011;36557;53.572;10.170;2023-05-16T13:35:09;3.33;;;0.68;;
50605;SDS011;36557;53.572;10.170;2023-05-16T13:37:35;3.33;;;0.80;;
50605;SDS011;36557;53.572;10.170;2023-05-16T13:40:01;2.70;;;0.80;;
50605;SDS011;36557;53.572;10.170;2023-05-16T13:42:28;3.20;;;1.02;;
50605;SDS011;36557;53.572;10.170;2023-05-16T13:44:54;5.95;;;1.10;;
50605;SDS011;36557;53.572;10.170;2023-05-16T13:47:20;2.15;;;0.50;;
50605;SDS011;36557;53.572;10.170;2023-05-16T13:49:46;2.30;;;0.80;;
50605;SDS011;36557;53.572;10.170;2023-05-16T13:52:12;3.33;;;0.60;;
50605;SDS011;36557;53.572;10.170;2023-05-16T13:54:38;1.67;;;0.77;;
50605;SDS011;36557;53.572;10.170;2023-05-16T13:57:05;3.65;;;1.13;;
50605;SDS011;36557;53.572;10.170;2023-05-16T13:59:31;3.20;;;0.88;;
50605;SDS011;36557;53.572;10.170;2023-05-16T14:01:57;4.88;;;0.77;;
50605;SDS011;36557;53.572;10.170;2023-05-16T14:04:23;2.15;;;0.57;;
50605;SDS011;36557;53.572;10.170;2023-05-16T14:06:50;3.95;;;0.80;;
50605;SDS011;36557;53.572;10.170;2023-05-16T14:09:15;1.40;;;0.60;;
50605;SDS011;36557;53.572;10.170;2023-05-16T14:11:41;1.83;;;0.52;;
50605;SDS011;36557;53.572;10.170;2023-05-16T14:14:07;4.57;;;0.60;;
50605;SDS011;36557;53.572;10.170;2023-05-16T14:16:32;2.25;;;0.55;;
50605;SDS011;36557;53.572;10.170;2023-05-16T14:18:58;1.77;;;0.40;;
50605;SDS011;36557;53.572;10.170;2023-05-16T14:21:24;1.27;;;0.50;;
50605;SDS011;36557;53.572;10.170;2023-05-16T14:23:50;2.35;;;0.70;;
50605;SDS011;36557;53.572;10.170;2023-05-16T14:26:16;3.20;;;0.90;;
50605;SDS011;36557;53.572;10.170;2023-05-16T14:28:46;2.67;;;0.70;;
50605;SDS011;36557;53.572;10.170;2023-05-16T14:31:12;4.03;;;1.15;;
50605;SDS011;36557;53.572;10.170;2023-05-16T14:33:38;2.28;;;0.82;;
50605;SDS011;36557;53.572;10.170;2023-05-16T14:36:05;4.97;;;1.20;;
50605;SDS011;36557;53.572;10.170;2023-05-16T14:38:32;3.72;;;0.82;;
50605;SDS011;36557;53.572;10.170;2023-05-16T14:40:57;6.13;;;1.08;;
50605;SDS011;36557;53.572;10.170;2023-05-16T14:43:23;8.68;;;0.98;;
50605;SDS011;36557;53.572;10.170;2023-05-16T14:45:49;3.85;;;1.05;;
50605;SDS011;36557;53.572;10.170;2023-05-16T14:48:14;4.97;;;1.40;;